sensor_id;sensor_type;location;lat;lon;timestamp;temperature;humidity
1429;DHT22;708;51.442;7.016;2023-08-12T00:02:02;22.60;99.90
1429;DHT22;708;51.442;7.016;2023-08-12T00:04:29;22.60;99.90
1429;DHT22;708;51.442;7.016;2023-08-12T00:06:56;22.60;99.90
1429;DHT22;708;51.442;7.016;2023-08-12T00:09:23;22.50;99.90
1429;DHT22;708;51.442;7.016;2023-08-12T00:11:50;22.50;99.90
1429;DHT22;708;51.442;7.016;2023-08-12T00:14:17;22.50;99.90
1429;DHT22;708;51.442;7.016;2023-08-12T00:16:44;22.50;99.90
1429;DHT22;708;51.442;7.016;2023-08-12T00:19:12;22.50;99.90
1429;DHT22;708;51.442;7.016;2023-08-12T00:21:39;22.40;99.90
1429;DHT22;708;51.442;7.016;2023-08-12T00:24:06;22.40;99.90
1429;DHT22;708;51.442;7.016;2023-08-12T00:26:32;22.50;99.90
1429;DHT22;708;51.442;7.016;2023-08-12T00:28:59;22.50;99.90
1429;DHT22;708;51.442;7.016;2023-08-12T00:31:26;22.50;99.90
1429;DHT22;708;51.442;7.016;2023-08-12T00:33:53;22.50;99.90
1429;DHT22;708;51.442;7.016;2023-08-12T00:36:21;22.50;99.90
1429;DHT22;708;51.442;7.016;2023-08-12T00:38:47;22.50;99.90
1429;DHT22;708;51.442;7.016;2023-08-12T00:41:15;22.50;99.90
1429;DHT22;708;51.442;7.016;2023-08-12T00:43:41;22.50;99.90
1429;DHT22;708;51.442;7.016;2023-08-12T00:46:08;22.50;99.90
1429;DHT22;708;51.442;7.016;2023-08-12T00:48:35;22.60;99.90
1429;DHT22;708;51.442;7.016;2023-08-12T00:51:02;22.60;99.90
1429;DHT22;708;51.442;7.016;2023-08-12T00:53:30;22.60;99.90
1429;DHT22;708;51.442;7.016;2023-08-12T00:55:57;22.60;99.90
1429;DHT22;708;51.442;7.016;2023-08-12T00:58:24;22.50;99.90
1429;DHT22;708;51.442;7.016;2023-08-12T01:00:51;22.40;99.90
1429;DHT22;708;51.442;7.016;2023-08-12T01:03:17;22.40;99.90
1429;DHT22;708;51.442;7.016;2023-08-12T01:05:45;22.30;99.90
1429;DHT22;708;51.442;7.016;2023-08-12T01:08:15;22.40;99.90
1429;DHT22;708;51.442;7.016;2023-08-12T01:10:46;22.40;99.90
1429;DHT22;708;51.442;7.016;2023-08-12T01:13:21;22.30;99.90
1429;DHT22;708;51.442;7.016;2023-08-12T01:15:53;22.30;99.90
1429;DHT22;708;51.442;7.016;2023-08-12T01:18:21;22.30;99.90
1429;DHT22;708;51.442;7.016;2023-08-12T01:20:49;22.30;99.90
1429;DHT22;708;51.442;7.016;2023-08-12T01:23:17;22.30;99.90
1429;DHT22;708;51.442;7.016;2023-08-12T01:25:45;22.30;99.90
1429;DHT22;708;51.442;7.016;2023-08-12T01:28:12;22.30;99.90
1429;DHT22;708;51.442;7.016;2023-08-12T01:30:45;22.30;99.90
1429;DHT22;708;51.442;7.016;2023-08-12T01:33:17;22.30;99.90
1429;DHT22;708;51.442;7.016;2023-08-12T01:35:50;22.30;99.90
1429;DHT22;708;51.442;7.016;2023-08-12T01:38:19;22.20;99.90
1429;DHT22;708;51.442;7.016;2023-08-12T01:40:47;22.30;99.90
1429;DHT22;708;51.442;7.016;2023-08-12T01:43:15;22.30;99.90
1429;DHT22;708;51.442;7.016;2023-08-12T01:45:42;22.30;99.90
1429;DHT22;708;51.442;7.016;2023-08-12T01:48:09;22.30;99.90
1429;DHT22;708;51.442;7.016;2023-08-12T01:50:36;22.30;99.90
1429;DHT22;708;51.442;7.016;2023-08-12T01:53:03;22.30;99.90
1429;DHT22;708;51.442;7.016;2023-08-12T01:55:31;22.20;99.90
1429;DHT22;708;51.442;7.016;2023-08-12T01:57:58;22.20;99.90
1429;DHT22;708;51.442;7.016;2023-08-12T02:00:25;22.20;99.90
1429;DHT22;708;51.442;7.016;2023-08-12T02:02:51;22.20;99.90
1429;DHT22;708;51.442;7.016;2023-08-12T02:05:18;22.20;99.90
1429;DHT22;708;51.442;7.016;2023-08-12T02:07:45;22.10;99.90
1429;DHT22;708;51.442;7.016;2023-08-12T02:10:11;22.20;99.90
1429;DHT22;708;51.442;7.016;2023-08-12T02:12:41;22.20;99.90
1429;DHT22;708;51.442;7.016;2023-08-12T02:15:08;22.20;99.90
1429;DHT22;708;51.442;7.016;2023-08-12T02:17:36;22.20;99.90
1429;DHT22;708;51.442;7.016;2023-08-12T02:20:03;22.10;99.90
1429;DHT22;708;51.442;7.016;2023-08-12T02:22:30;22.10;99.90
1429;DHT22;708;51.442;7.016;2023-08-12T02:24:57;22.10;99.90
1429;DHT22;708;51.442;7.016;2023-08-12T02:27:24;22.10;99.90
1429;DHT22;708;51.442;7.016;2023-08-12T02:29:52;22.00;99.90
1429;DHT22;708;51.442;7.016;2023-08-12T02:32:19;22.10;99.90
1429;DHT22;708;51.442;7.016;2023-08-12T02:34:46;22.10;99.90
1429;DHT22;708;51.442;7.016;2023-08-12T02:37:12;22.10;99.90
1429;DHT22;708;51.442;7.016;2023-08-12T02:39:39;22.10;99.90
1429;DHT22;708;51.442;7.016;2023-08-12T02:42:06;22.10;99.90
1429;DHT22;708;51.442;7.016;2023-08-12T02:44:32;22.00;99.90
1429;DHT22;708;51.442;7.016;2023-08-12T02:47:00;22.10;99.90
1429;DHT22;708;51.442;7.016;2023-08-12T02:49:27;22.10;99.90
1429;DHT22;708;51.442;7.016;2023-08-12T02:51:54;22.10;99.90
1429;DHT22;708;51.442;7.016;2023-08-12T02:54:21;22.00;99.90
1429;DHT22;708;51.442;7.016;2023-08-12T02:56:49;21.90;99.90
1429;DHT22;708;51.442;7.016;2023-08-12T02:59:16;21.90;99.90
1429;DHT22;708;51.442;7.016;2023-08-12T03:01:43;22.00;99.90
1429;DHT22;708;51.442;7.016;2023-08-12T03:04:11;21.90;99.90
1429;DHT22;708;51.442;7.016;2023-08-12T03:06:37;21.90;99.90
1429;DHT22;708;51.442;7.016;2023-08-12T03:09:04;22.00;99.90
1429;DHT22;708;51.442;7.016;2023-08-12T03:11:32;22.00;99.90
1429;DHT22;708;51.442;7.016;2023-08-12T03:13:58;22.00;99.90
1429;DHT22;708;51.442;7.016;2023-08-12T03:16:25;21.90;99.90
1429;DHT22;708;51.442;7.016;2023-08-12T03:18:52;21.90;99.90
1429;DHT22;708;51.442;7.016;2023-08-12T03:21:20;22.00;99.90
1429;DHT22;708;51.442;7.016;2023-08-12T03:23:47;21.90;99.90
1429;DHT22;708;51.442;7.016;2023-08-12T03:26:14;21.90;99.90
1429;DHT22;708;51.442;7.016;2023-08-12T03:28:41;21.80;99.90
1429;DHT22;708;51.442;7.016;2023-08-12T03:31:08;21.80;99.90
1429;DHT22;708;51.442;7.016;2023-08-12T03:33:34;21.80;99.90
1429;DHT22;708;51.442;7.016;2023-08-12T03:36:01;21.80;99.90
1429;DHT22;708;51.442;7.016;2023-08-12T03:38:29;21.70;99.90
1429;DHT22;708;51.442;7.016;2023-08-12T03:40:56;21.70;99.90
1429;DHT22;708;51.442;7.016;2023-08-12T03:43:23;21.70;99.90
1429;DHT22;708;51.442;7.016;2023-08-12T03:45:50;21.70;99.90
1429;DHT22;708;51.442;7.016;2023-08-12T03:48:16;21.80;99.90
1429;DHT22;708;51.442;7.016;2023-08-12T03:50:43;21.80;99.90
1429;DHT22;708;51.442;7.016;2023-08-12T03:53:12;21.80;99.90
1429;DHT22;708;51.442;7.016;2023-08-12T03:55:41;21.90;99.90
1429;DHT22;708;51.442;7.016;2023-08-12T03:58:08;21.90;99.90
1429;DHT22;708;51.442;7.016;2023-08-12T04:00:34;21.80;99.90
1429;DHT22;708;51.442;7.016;2023-08-12T04:03:02;21.80;99.90
1429;DHT22;708;51.442;7.016;2023-08-12T04:05:28;21.80;99.90
1429;DHT22;708;51.442;7.016;2023-08-12T04:07:55;21.90;99.90
1429;DHT22;708;51.442;7.016;2023-08-12T04:10:22;21.90;99.90
1429;DHT22;708;51.442;7.016;2023-08-12T04:12:50;21.90;99.90
1429;DHT22;708;51.442;7.016;2023-08-12T04:15:16;21.90;99.90
1429;DHT22;708;51.442;7.016;2023-08-12T04:17:43;21.90;99.90
1429;DHT22;708;51.442;7.016;2023-08-12T04:20:10;21.90;99.90
1429;DHT22;708;51.442;7.016;2023-08-12T04:22:37;21.80;99.90
1429;DHT22;708;51.442;7.016;2023-08-12T04:25:05;21.80;99.90
1429;DHT22;708;51.442;7.016;2023-08-12T04:27:32;21.80;99.90
1429;DHT22;708;51.442;7.016;2023-08-12T04:30:00;21.80;99.90
1429;DHT22;708;51.442;7.016;2023-08-12T04:32:27;21.80;99.90
1429;DHT22;708;51.442;7.016;2023-08-12T04:34:56;21.80;99.90
1429;DHT22;708;51.442;7.016;2023-08-12T04:37:23;21.80;99.90
1429;DHT22;708;51.442;7.016;2023-08-12T04:39:50;21.80;99.90
1429;DHT22;708;51.442;7.016;2023-08-12T04:42:16;21.80;99.90
1429;DHT22;708;51.442;7.016;2023-08-12T04:44:43;21.90;99.90
1429;DHT22;708;51.442;7.016;2023-08-12T04:47:11;21.90;99.90
1429;DHT22;708;51.442;7.016;2023-08-12T04:49:39;21.80;99.90
1429;DHT22;708;51.442;7.016;2023-08-12T04:52:06;21.80;99.90
1429;DHT22;708;51.442;7.016;2023-08-12T04:54:33;21.80;99.90
1429;DHT22;708;51.442;7.016;2023-08-12T04:57:00;21.90;99.90
1429;DHT22;708;51.442;7.016;2023-08-12T04:59:27;22.00;99.90
1429;DHT22;708;51.442;7.016;2023-08-12T05:01:53;22.10;99.90
1429;DHT22;708;51.442;7.016;2023-08-12T05:04:22;22.20;99.90
1429;DHT22;708;51.442;7.016;2023-08-12T05:06:48;22.30;99.90
1429;DHT22;708;51.442;7.016;2023-08-12T05:09:15;22.40;99.90
1429;DHT22;708;51.442;7.016;2023-08-12T05:11:42;22.60;99.90
1429;DHT22;708;51.442;7.016;2023-08-12T05:14:09;22.80;99.90
1429;DHT22;708;51.442;7.016;2023-08-12T05:16:35;22.80;99.90
1429;DHT22;708;51.442;7.016;2023-08-12T05:19:02;23.00;99.90
1429;DHT22;708;51.442;7.016;2023-08-12T05:21:30;23.10;99.90
1429;DHT22;708;51.442;7.016;2023-08-12T05:23:57;23.10;99.90
1429;DHT22;708;51.442;7.016;2023-08-12T05:26:24;23.20;99.90
1429;DHT22;708;51.442;7.016;2023-08-12T05:28:50;23.10;99.90
1429;DHT22;708;51.442;7.016;2023-08-12T05:31:17;23.10;96.00
1429;DHT22;708;51.442;7.016;2023-08-12T05:33:44;23.00;94.10
1429;DHT22;708;51.442;7.016;2023-08-12T05:36:11;22.90;96.00
1429;DHT22;708;51.442;7.016;2023-08-12T05:38:39;22.90;99.10
1429;DHT22;708;51.442;7.016;2023-08-12T05:41:05;22.80;99.90
1429;DHT22;708;51.442;7.016;2023-08-12T05:43:33;22.70;99.90
1429;DHT22;708;51.442;7.016;2023-08-12T05:45:59;22.60;99.90
1429;DHT22;708;51.442;7.016;2023-08-12T05:48:26;22.60;99.90
1429;DHT22;708;51.442;7.016;2023-08-12T05:50:53;22.60;99.90
1429;DHT22;708;51.442;7.016;2023-08-12T05:53:21;22.60;99.90
1429;DHT22;708;51.442;7.016;2023-08-12T05:55:49;22.60;99.90
1429;DHT22;708;51.442;7.016;2023-08-12T05:58:16;22.60;99.90
1429;DHT22;708;51.442;7.016;2023-08-12T06:00:43;22.60;99.90
1429;DHT22;708;51.442;7.016;2023-08-12T06:03:11;22.70;99.90
1429;DHT22;708;51.442;7.016;2023-08-12T06:05:39;22.70;99.90
1429;DHT22;708;51.442;7.016;2023-08-12T06:08:05;22.80;99.90
1429;DHT22;708;51.442;7.016;2023-08-12T06:10:33;22.80;99.90
1429;DHT22;708;51.442;7.016;2023-08-12T06:13:01;22.90;99.90
1429;DHT22;708;51.442;7.016;2023-08-12T06:15:28;23.00;99.90
1429;DHT22;708;51.442;7.016;2023-08-12T06:17:54;23.10;99.90
1429;DHT22;708;51.442;7.016;2023-08-12T06:20:22;23.20;97.10
1429;DHT22;708;51.442;7.016;2023-08-12T06:22:50;23.20;95.20
1429;DHT22;708;51.442;7.016;2023-08-12T06:25:17;23.20;92.50
1429;DHT22;708;51.442;7.016;2023-08-12T06:27:44;23.20;91.60
1429;DHT22;708;51.442;7.016;2023-08-12T06:30:13;23.20;93.10
1429;DHT22;708;51.442;7.016;2023-08-12T06:32:40;23.10;92.00
1429;DHT22;708;51.442;7.016;2023-08-12T06:35:08;23.00;94.60
1429;DHT22;708;51.442;7.016;2023-08-12T06:37:35;23.00;99.90
1429;DHT22;708;51.442;7.016;2023-08-12T06:40:02;22.90;99.90
1429;DHT22;708;51.442;7.016;2023-08-12T06:42:29;22.80;99.90
1429;DHT22;708;51.442;7.016;2023-08-12T06:44:58;22.80;99.90
1429;DHT22;708;51.442;7.016;2023-08-12T06:47:26;22.70;99.90
1429;DHT22;708;51.442;7.016;2023-08-12T06:49:55;22.60;99.90
1429;DHT22;708;51.442;7.016;2023-08-12T06:52:22;22.50;99.90
1429;DHT22;708;51.442;7.016;2023-08-12T06:54:48;22.40;99.90
1429;DHT22;708;51.442;7.016;2023-08-12T06:57:15;22.30;99.90
1429;DHT22;708;51.442;7.016;2023-08-12T06:59:42;22.30;99.90
1429;DHT22;708;51.442;7.016;2023-08-12T07:02:09;22.20;99.90
1429;DHT22;708;51.442;7.016;2023-08-12T07:04:37;22.10;99.90
1429;DHT22;708;51.442;7.016;2023-08-12T07:07:04;22.00;99.90
1429;DHT22;708;51.442;7.016;2023-08-12T07:09:40;22.00;99.90
1429;DHT22;708;51.442;7.016;2023-08-12T07:12:07;22.00;99.90
1429;DHT22;708;51.442;7.016;2023-08-12T07:14:34;22.00;99.90
1429;DHT22;708;51.442;7.016;2023-08-12T07:17:00;22.00;99.90
1429;DHT22;708;51.442;7.016;2023-08-12T07:19:27;22.10;99.90
1429;DHT22;708;51.442;7.016;2023-08-12T07:21:55;22.20;99.90
1429;DHT22;708;51.442;7.016;2023-08-12T07:24:22;22.30;99.90
1429;DHT22;708;51.442;7.016;2023-08-12T07:26:52;22.30;99.90
1429;DHT22;708;51.442;7.016;2023-08-12T07:29:19;22.40;99.90
1429;DHT22;708;51.442;7.016;2023-08-12T07:31:46;22.60;99.90
1429;DHT22;708;51.442;7.016;2023-08-12T07:34:16;22.80;99.90
1429;DHT22;708;51.442;7.016;2023-08-12T07:36:42;22.90;99.90
1429;DHT22;708;51.442;7.016;2023-08-12T07:39:11;23.10;99.90
1429;DHT22;708;51.442;7.016;2023-08-12T07:41:38;23.20;99.90
1429;DHT22;708;51.442;7.016;2023-08-12T07:44:05;23.30;99.60
1429;DHT22;708;51.442;7.016;2023-08-12T07:46:32;23.50;90.20
1429;DHT22;708;51.442;7.016;2023-08-12T07:48:58;23.60;80.30
1429;DHT22;708;51.442;7.016;2023-08-12T07:51:25;23.90;55.70
1429;DHT22;708;51.442;7.016;2023-08-12T07:53:52;24.10;48.70
1429;DHT22;708;51.442;7.016;2023-08-12T07:56:20;24.30;28.80
1429;DHT22;708;51.442;7.016;2023-08-12T07:58:47;24.40;23.30
1429;DHT22;708;51.442;7.016;2023-08-12T08:01:14;24.60;15.50
1429;DHT22;708;51.442;7.016;2023-08-12T08:03:41;24.90;1.00
1429;DHT22;708;51.442;7.016;2023-08-12T08:06:07;25.00;1.00
1429;DHT22;708;51.442;7.016;2023-08-12T08:08:34;25.00;1.00
1429;DHT22;708;51.442;7.016;2023-08-12T08:11:01;24.80;1.00
1429;DHT22;708;51.442;7.016;2023-08-12T08:13:29;24.60;1.00
1429;DHT22;708;51.442;7.016;2023-08-12T08:15:56;24.50;3.20
1429;DHT22;708;51.442;7.016;2023-08-12T08:18:23;24.40;8.20
1429;DHT22;708;51.442;7.016;2023-08-12T08:20:50;24.30;12.60
1429;DHT22;708;51.442;7.016;2023-08-12T08:23:16;24.30;24.60
1429;DHT22;708;51.442;7.016;2023-08-12T08:25:43;24.30;24.30
1429;DHT22;708;51.442;7.016;2023-08-12T08:28:10;24.30;29.10
1429;DHT22;708;51.442;7.016;2023-08-12T08:30:38;24.50;27.00
1429;DHT22;708;51.442;7.016;2023-08-12T08:33:05;24.60;28.00
1429;DHT22;708;51.442;7.016;2023-08-12T08:35:32;24.60;27.00
1429;DHT22;708;51.442;7.016;2023-08-12T08:37:59;24.70;21.50
1429;DHT22;708;51.442;7.016;2023-08-12T08:40:26;24.80;35.00
1429;DHT22;708;51.442;7.016;2023-08-12T08:42:53;24.90;14.70
1429;DHT22;708;51.442;7.016;2023-08-12T08:45:22;25.00;12.30
1429;DHT22;708;51.442;7.016;2023-08-12T08:47:51;25.00;3.60
1429;DHT22;708;51.442;7.016;2023-08-12T08:50:18;25.10;5.30
1429;DHT22;708;51.442;7.016;2023-08-12T08:52:45;25.10;1.00
1429;DHT22;708;51.442;7.016;2023-08-12T08:55:13;25.10;1.00
1429;DHT22;708;51.442;7.016;2023-08-12T08:57:43;25.10;1.00
1429;DHT22;708;51.442;7.016;2023-08-12T09:00:13;25.10;1.00
1429;DHT22;708;51.442;7.016;2023-08-12T09:02:41;25.20;10.30
1429;DHT22;708;51.442;7.016;2023-08-12T09:05:10;25.30;1.00
1429;DHT22;708;51.442;7.016;2023-08-12T09:07:43;25.40;1.00
1429;DHT22;708;51.442;7.016;2023-08-12T09:10:11;25.70;1.00
1429;DHT22;708;51.442;7.016;2023-08-12T09:12:38;25.60;1.00
1429;DHT22;708;51.442;7.016;2023-08-12T09:15:06;25.50;1.00
1429;DHT22;708;51.442;7.016;2023-08-12T09:17:33;25.40;1.00
1429;DHT22;708;51.442;7.016;2023-08-12T09:20:00;25.30;1.00
1429;DHT22;708;51.442;7.016;2023-08-12T09:22:28;25.20;1.00
1429;DHT22;708;51.442;7.016;2023-08-12T09:24:58;25.20;1.00
1429;DHT22;708;51.442;7.016;2023-08-12T09:27:26;25.10;1.00
1429;DHT22;708;51.442;7.016;2023-08-12T09:29:56;25.00;1.00
1429;DHT22;708;51.442;7.016;2023-08-12T09:32:23;25.00;1.00
1429;DHT22;708;51.442;7.016;2023-08-12T09:34:51;25.00;1.00
1429;DHT22;708;51.442;7.016;2023-08-12T09:37:18;25.10;1.00
1429;DHT22;708;51.442;7.016;2023-08-12T09:39:47;25.30;1.00
1429;DHT22;708;51.442;7.016;2023-08-12T09:42:15;25.40;1.00
1429;DHT22;708;51.442;7.016;2023-08-12T09:44:43;25.40;1.00
1429;DHT22;708;51.442;7.016;2023-08-12T09:47:10;25.30;1.00
1429;DHT22;708;51.442;7.016;2023-08-12T09:49:38;25.20;1.00
1429;DHT22;708;51.442;7.016;2023-08-12T09:52:06;25.20;1.00
1429;DHT22;708;51.442;7.016;2023-08-12T09:54:34;25.20;6.30
1429;DHT22;708;51.442;7.016;2023-08-12T09:57:04;25.30;1.00
1429;DHT22;708;51.442;7.016;2023-08-12T09:59:34;25.40;1.00
1429;DHT22;708;51.442;7.016;2023-08-12T10:02:02;25.40;1.00
1429;DHT22;708;51.442;7.016;2023-08-12T10:04:35;25.40;1.00
1429;DHT22;708;51.442;7.016;2023-08-12T10:07:03;25.50;1.00
1429;DHT22;708;51.442;7.016;2023-08-12T10:09:32;25.40;1.00
1429;DHT22;708;51.442;7.016;2023-08-12T10:11:59;25.40;1.00
1429;DHT22;708;51.442;7.016;2023-08-12T10:14:28;25.20;1.00
1429;DHT22;708;51.442;7.016;2023-08-12T10:16:56;25.10;1.00
1429;DHT22;708;51.442;7.016;2023-08-12T10:19:24;24.90;4.90
1429;DHT22;708;51.442;7.016;2023-08-12T10:21:55;24.80;14.10
1429;DHT22;708;51.442;7.016;2023-08-12T10:24:23;24.80;12.20
1429;DHT22;708;51.442;7.016;2023-08-12T10:26:51;24.70;19.70
1429;DHT22;708;51.442;7.016;2023-08-12T10:29:19;24.60;21.80
1429;DHT22;708;51.442;7.016;2023-08-12T10:31:48;24.50;28.50
1429;DHT22;708;51.442;7.016;2023-08-12T10:34:19;24.40;34.90
1429;DHT22;708;51.442;7.016;2023-08-12T10:36:47;24.40;46.00
1429;DHT22;708;51.442;7.016;2023-08-12T10:39:14;24.40;58.30
1429;DHT22;708;51.442;7.016;2023-08-12T10:41:50;24.40;54.70
1429;DHT22;708;51.442;7.016;2023-08-12T10:44:20;24.40;72.50
1429;DHT22;708;51.442;7.016;2023-08-12T10:46:51;24.50;75.50
1429;DHT22;708;51.442;7.016;2023-08-12T10:49:19;24.40;62.70
1429;DHT22;708;51.442;7.016;2023-08-12T10:51:48;24.50;78.20
1429;DHT22;708;51.442;7.016;2023-08-12T10:54:21;24.70;91.30
1429;DHT22;708;51.442;7.016;2023-08-12T10:57:11;24.90;66.80
1429;DHT22;708;51.442;7.016;2023-08-12T10:59:48;25.10;53.60
1429;DHT22;708;51.442;7.016;2023-08-12T11:02:20;25.30;39.80
1429;DHT22;708;51.442;7.016;2023-08-12T11:04:49;25.60;31.70
1429;DHT22;708;51.442;7.016;2023-08-12T11:07:18;26.10;1.00
1429;DHT22;708;51.442;7.016;2023-08-12T11:09:45;26.40;1.00
1429;DHT22;708;51.442;7.016;2023-08-12T11:12:23;26.60;1.00
1429;DHT22;708;51.442;7.016;2023-08-12T11:14:54;26.80;1.00
1429;DHT22;708;51.442;7.016;2023-08-12T11:17:34;27.20;1.00
1429;DHT22;708;51.442;7.016;2023-08-12T11:20:06;27.50;1.00
1429;DHT22;708;51.442;7.016;2023-08-12T11:22:37;27.60;1.00
1429;DHT22;708;51.442;7.016;2023-08-12T11:25:11;27.90;1.00
1429;DHT22;708;51.442;7.016;2023-08-12T11:27:40;28.10;1.00
1429;DHT22;708;51.442;7.016;2023-08-12T11:30:08;28.40;1.00
1429;DHT22;708;51.442;7.016;2023-08-12T11:32:38;28.60;1.00
1429;DHT22;708;51.442;7.016;2023-08-12T11:35:07;28.70;1.00
1429;DHT22;708;51.442;7.016;2023-08-12T11:37:35;29.00;99.90
1429;DHT22;708;51.442;7.016;2023-08-12T11:40:03;28.80;99.90
1429;DHT22;708;51.442;7.016;2023-08-12T11:42:31;29.00;99.90
1429;DHT22;708;51.442;7.016;2023-08-12T11:44:57;29.00;99.90
1429;DHT22;708;51.442;7.016;2023-08-12T11:47:24;29.10;99.90
1429;DHT22;708;51.442;7.016;2023-08-12T11:49:53;29.40;99.90
1429;DHT22;708;51.442;7.016;2023-08-12T11:52:20;29.60;99.90
1429;DHT22;708;51.442;7.016;2023-08-12T11:54:48;29.80;99.90
1429;DHT22;708;51.442;7.016;2023-08-12T11:57:16;29.60;99.90
1429;DHT22;708;51.442;7.016;2023-08-12T11:59:43;29.40;99.90
1429;DHT22;708;51.442;7.016;2023-08-12T12:02:10;29.00;99.90
1429;DHT22;708;51.442;7.016;2023-08-12T12:04:38;28.80;99.90
1429;DHT22;708;51.442;7.016;2023-08-12T12:07:18;28.50;99.90
1429;DHT22;708;51.442;7.016;2023-08-12T12:09:45;28.40;99.90
1429;DHT22;708;51.442;7.016;2023-08-12T12:12:12;28.50;99.90
1429;DHT22;708;51.442;7.016;2023-08-12T12:14:38;28.50;99.90
1429;DHT22;708;51.442;7.016;2023-08-12T12:17:07;28.50;99.90
1429;DHT22;708;51.442;7.016;2023-08-12T12:19:34;28.50;99.90
1429;DHT22;708;51.442;7.016;2023-08-12T12:22:03;28.30;99.90
1429;DHT22;708;51.442;7.016;2023-08-12T12:24:31;28.20;99.90
1429;DHT22;708;51.442;7.016;2023-08-12T12:26:58;27.90;1.00
1429;DHT22;708;51.442;7.016;2023-08-12T12:29:24;27.50;1.00
1429;DHT22;708;51.442;7.016;2023-08-12T12:31:51;26.70;1.00
1429;DHT22;708;51.442;7.016;2023-08-12T12:34:18;26.30;1.00
1429;DHT22;708;51.442;7.016;2023-08-12T12:39:12;25.20;1.00
1429;DHT22;708;51.442;7.016;2023-08-12T12:41:41;24.90;12.80
1429;DHT22;708;51.442;7.016;2023-08-12T12:44:07;24.50;25.30
1429;DHT22;708;51.442;7.016;2023-08-12T12:46:35;24.20;40.00
1429;DHT22;708;51.442;7.016;2023-08-12T12:49:02;24.00;63.60
1429;DHT22;708;51.442;7.016;2023-08-12T12:51:29;23.80;89.70
1429;DHT22;708;51.442;7.016;2023-08-12T12:53:56;23.60;99.90
1429;DHT22;708;51.442;7.016;2023-08-12T12:56:23;23.50;99.90
1429;DHT22;708;51.442;7.016;2023-08-12T12:58:51;23.40;99.90
1429;DHT22;708;51.442;7.016;2023-08-12T13:01:18;23.30;99.90
1429;DHT22;708;51.442;7.016;2023-08-12T13:03:47;23.20;99.90
1429;DHT22;708;51.442;7.016;2023-08-12T13:06:14;23.20;99.90
1429;DHT22;708;51.442;7.016;2023-08-12T13:08:41;23.20;99.90
1429;DHT22;708;51.442;7.016;2023-08-12T13:11:09;23.10;99.90
1429;DHT22;708;51.442;7.016;2023-08-12T13:13:36;23.20;99.90
1429;DHT22;708;51.442;7.016;2023-08-12T13:16:04;23.30;99.90
1429;DHT22;708;51.442;7.016;2023-08-12T13:18:31;23.50;99.90
1429;DHT22;708;51.442;7.016;2023-08-12T13:20:58;23.60;99.90
1429;DHT22;708;51.442;7.016;2023-08-12T13:23:25;23.70;99.90
1429;DHT22;708;51.442;7.016;2023-08-12T13:25:51;23.90;99.90
1429;DHT22;708;51.442;7.016;2023-08-12T13:28:18;24.00;99.90
1429;DHT22;708;51.442;7.016;2023-08-12T13:30:45;24.40;99.90
1429;DHT22;708;51.442;7.016;2023-08-12T13:33:14;24.70;99.90
1429;DHT22;708;51.442;7.016;2023-08-12T13:35:40;25.10;99.90
1429;DHT22;708;51.442;7.016;2023-08-12T13:38:07;25.50;56.40
1429;DHT22;708;51.442;7.016;2023-08-12T13:40:34;25.80;18.30
1429;DHT22;708;51.442;7.016;2023-08-12T13:43:00;26.10;1.00
1429;DHT22;708;51.442;7.016;2023-08-12T13:45:27;26.20;1.00
1429;DHT22;708;51.442;7.016;2023-08-12T13:47:54;26.40;1.00
1429;DHT22;708;51.442;7.016;2023-08-12T13:50:22;26.20;1.00
1429;DHT22;708;51.442;7.016;2023-08-12T13:52:49;26.00;1.00
1429;DHT22;708;51.442;7.016;2023-08-12T13:55:16;25.70;1.00
1429;DHT22;708;51.442;7.016;2023-08-12T13:57:43;25.40;7.80
1429;DHT22;708;51.442;7.016;2023-08-12T14:00:10;25.00;42.30
1429;DHT22;708;51.442;7.016;2023-08-12T14:02:39;25.00;46.60
1429;DHT22;708;51.442;7.016;2023-08-12T14:05:07;25.00;56.30
1429;DHT22;708;51.442;7.016;2023-08-12T14:07:37;25.10;37.30
1429;DHT22;708;51.442;7.016;2023-08-12T14:10:04;25.10;23.30
1429;DHT22;708;51.442;7.016;2023-08-12T14:12:31;25.30;42.00
1429;DHT22;708;51.442;7.016;2023-08-12T14:14:58;25.60;21.50
1429;DHT22;708;51.442;7.016;2023-08-12T14:17:25;26.00;10.80
1429;DHT22;708;51.442;7.016;2023-08-12T14:19:52;26.50;1.00
1429;DHT22;708;51.442;7.016;2023-08-12T14:22:20;26.80;1.00
1429;DHT22;708;51.442;7.016;2023-08-12T14:24:48;27.00;1.00
1429;DHT22;708;51.442;7.016;2023-08-12T14:27:15;27.30;1.00
1429;DHT22;708;51.442;7.016;2023-08-12T14:29:43;27.30;1.00
1429;DHT22;708;51.442;7.016;2023-08-12T14:32:10;27.40;1.00
1429;DHT22;708;51.442;7.016;2023-08-12T14:34:37;27.40;1.00
1429;DHT22;708;51.442;7.016;2023-08-12T14:37:04;27.50;1.00
1429;DHT22;708;51.442;7.016;2023-08-12T14:39:32;27.70;1.00
1429;DHT22;708;51.442;7.016;2023-08-12T14:42:00;27.80;1.00
1429;DHT22;708;51.442;7.016;2023-08-12T14:44:29;27.70;1.00
1429;DHT22;708;51.442;7.016;2023-08-12T14:46:57;27.60;1.00
1429;DHT22;708;51.442;7.016;2023-08-12T14:49:24;27.60;1.00
1429;DHT22;708;51.442;7.016;2023-08-12T14:51:50;27.60;1.00
1429;DHT22;708;51.442;7.016;2023-08-12T14:54:17;27.50;1.00
1429;DHT22;708;51.442;7.016;2023-08-12T14:56:44;27.40;1.00
1429;DHT22;708;51.442;7.016;2023-08-12T14:59:12;27.20;1.00
1429;DHT22;708;51.442;7.016;2023-08-12T15:01:39;27.10;1.00
1429;DHT22;708;51.442;7.016;2023-08-12T15:04:09;26.90;1.00
1429;DHT22;708;51.442;7.016;2023-08-12T15:06:36;26.70;1.00
1429;DHT22;708;51.442;7.016;2023-08-12T15:09:11;26.50;1.00
1429;DHT22;708;51.442;7.016;2023-08-12T15:11:38;26.40;1.00
1429;DHT22;708;51.442;7.016;2023-08-12T15:14:05;26.30;1.00
1429;DHT22;708;51.442;7.016;2023-08-12T15:16:33;26.20;1.00
1429;DHT22;708;51.442;7.016;2023-08-12T15:19:00;26.10;1.00
1429;DHT22;708;51.442;7.016;2023-08-12T15:21:29;26.20;1.00
1429;DHT22;708;51.442;7.016;2023-08-12T15:23:56;26.30;1.00
1429;DHT22;708;51.442;7.016;2023-08-12T15:26:24;26.40;1.00
1429;DHT22;708;51.442;7.016;2023-08-12T15:28:50;26.40;1.00
1429;DHT22;708;51.442;7.016;2023-08-12T15:31:20;26.40;99.90
1429;DHT22;708;51.442;7.016;2023-08-12T15:33:49;26.40;99.90
1429;DHT22;708;51.442;7.016;2023-08-12T15:36:16;26.30;99.90
1429;DHT22;708;51.442;7.016;2023-08-12T15:38:42;26.10;99.90
1429;DHT22;708;51.442;7.016;2023-08-12T15:41:12;26.10;99.90
1429;DHT22;708;51.442;7.016;2023-08-12T15:43:40;25.90;99.90
1429;DHT22;708;51.442;7.016;2023-08-12T15:46:07;25.80;99.90
1429;DHT22;708;51.442;7.016;2023-08-12T15:48:34;25.70;99.90
1429;DHT22;708;51.442;7.016;2023-08-12T15:51:02;25.70;99.90
1429;DHT22;708;51.442;7.016;2023-08-12T15:53:29;25.70;99.90
1429;DHT22;708;51.442;7.016;2023-08-12T15:55:56;25.80;1.00
1429;DHT22;708;51.442;7.016;2023-08-12T15:58:23;25.80;1.00
1429;DHT22;708;51.442;7.016;2023-08-12T16:00:49;25.70;1.00
1429;DHT22;708;51.442;7.016;2023-08-12T16:03:17;25.70;1.00
1429;DHT22;708;51.442;7.016;2023-08-12T16:05:44;25.60;1.00
1429;DHT22;708;51.442;7.016;2023-08-12T16:08:16;25.50;1.00
1429;DHT22;708;51.442;7.016;2023-08-12T16:10:42;25.40;1.00
1429;DHT22;708;51.442;7.016;2023-08-12T16:13:09;25.50;1.00
1429;DHT22;708;51.442;7.016;2023-08-12T16:15:36;25.50;1.00
1429;DHT22;708;51.442;7.016;2023-08-12T16:18:03;25.60;99.90
1429;DHT22;708;51.442;7.016;2023-08-12T16:20:30;25.60;1.00
1429;DHT22;708;51.442;7.016;2023-08-12T16:22:58;25.70;1.00
1429;DHT22;708;51.442;7.016;2023-08-12T16:25:26;25.60;99.90
1429;DHT22;708;51.442;7.016;2023-08-12T16:27:52;25.60;22.40